createdAt,value
2023-05-10T00:00:13.976Z,15.72
2023-05-10T00:02:41.612Z,15.63
2023-05-10T00:05:08.657Z,15.69
2023-05-10T00:07:35.115Z,15.70
2023-05-10T00:10:01.625Z,15.74
2023-05-10T00:12:28.116Z,15.65
2023-05-10T00:14:54.653Z,15.60
2023-05-10T00:17:21.063Z,15.50
2023-05-10T00:19:47.522Z,15.44
2023-05-10T00:22:13.975Z,15.32
2023-05-10T00:24:40.988Z,15.30
2023-05-10T00:27:07.390Z,15.23
2023-05-10T00:29:34.797Z,15.21
2023-05-10T00:32:01.296Z,15.14
2023-05-10T00:34:28.290Z,15.03
2023-05-10T00:36:54.840Z,15.04
2023-05-10T00:39:21.460Z,15.01
2023-05-10T00:41:47.994Z,14.94
2023-05-10T00:44:15.651Z,14.87
2023-05-10T00:46:42.786Z,14.86
2023-05-10T00:49:09.518Z,14.81
2023-05-10T00:51:36.059Z,14.76
2023-05-10T00:54:03.618Z,14.81
2023-05-10T00:56:30.847Z,14.75
2023-05-10T00:58:58.077Z,14.81
2023-05-10T01:01:25.448Z,14.81
2023-05-10T01:03:52.166Z,14.77
2023-05-10T01:06:18.665Z,14.71
2023-05-10T01:08:45.667Z,14.75
2023-05-10T01:11:12.212Z,14.65
2023-05-10T01:13:41.831Z,14.60
2023-05-10T01:16:09.136Z,14.57
2023-05-10T01:18:39.278Z,14.61
2023-05-10T01:21:13.616Z,14.62
2023-05-10T01:23:55.363Z,14.59
2023-05-10T01:26:41.010Z,14.51
2023-05-10T01:29:32.286Z,14.53
2023-05-10T01:32:15.325Z,14.43
2023-05-10T01:34:53.785Z,14.47
2023-05-10T01:37:55.068Z,14.48
2023-05-10T01:40:42.761Z,14.37
2023-05-10T01:43:17.893Z,14.34
2023-05-10T01:46:05.524Z,14.31
2023-05-10T01:48:33.971Z,14.31
2023-05-10T01:51:00.799Z,14.34
2023-05-10T01:53:29.157Z,14.26
2023-05-10T01:55:57.197Z,14.24
2023-05-10T01:58:33.616Z,14.18
2023-05-10T02:01:04.069Z,14.15
2023-05-10T02:03:33.103Z,14.19
2023-05-10T02:06:00.151Z,14.15
2023-05-10T02:08:27.187Z,14.19
2023-05-10T02:10:57.073Z,14.17
2023-05-10T02:13:25.646Z,14.08
2023-05-10T02:15:53.977Z,14.07
2023-05-10T02:18:22.881Z,14.06
2023-05-10T02:20:49.699Z,14.04
2023-05-10T02:23:18.390Z,14.05
2023-05-10T02:25:46.573Z,13.98
2023-05-10T02:28:15.792Z,13.99
2023-05-10T02:30:42.639Z,13.97
2023-05-10T02:33:09.624Z,13.90
2023-05-10T02:35:36.998Z,13.94
2023-05-10T02:38:05.114Z,13.96
2023-05-10T02:40:33.442Z,13.98
2023-05-10T02:43:00.355Z,13.98
2023-05-10T02:45:31.207Z,13.94
2023-05-10T02:47:57.950Z,13.95
2023-05-10T02:50:28.395Z,13.91
2023-05-10T02:53:00.524Z,13.90
2023-05-10T02:55:33.714Z,13.83
2023-05-10T02:58:02.097Z,13.81
2023-05-10T03:00:29.283Z,13.80
2023-05-10T03:02:55.925Z,13.76
2023-05-10T03:05:22.791Z,13.80
2023-05-10T03:07:49.407Z,13.81
2023-05-10T03:10:16.125Z,13.72
2023-05-10T03:13:01.450Z,13.72
2023-05-10T03:15:35.799Z,13.63
2023-05-10T03:18:13.129Z,13.73
2023-05-10T03:20:43.617Z,13.69
2023-05-10T03:23:21.782Z,13.72
2023-05-10T03:25:50.270Z,13.68
2023-05-10T03:28:18.599Z,13.65
2023-05-10T03:30:46.708Z,13.65
2023-05-10T03:33:14.250Z,13.65
2023-05-10T03:35:45.102Z,13.61
2023-05-10T03:38:11.696Z,13.57
2023-05-10T03:40:38.464Z,13.49
2023-05-10T03:43:05.147Z,13.51
2023-05-10T03:45:32.031Z,13.53
2023-05-10T03:47:59.586Z,13.48
2023-05-10T03:50:27.307Z,13.48
2023-05-10T03:52:54.868Z,13.49
2023-05-10T03:55:21.840Z,13.42
2023-05-10T03:57:50.426Z,13.37
2023-05-10T04:00:17.978Z,13.46
2023-05-10T04:02:48.185Z,13.43
2023-05-10T04:05:18.935Z,13.47
2023-05-10T04:07:45.422Z,13.43
2023-05-10T04:10:12.694Z,13.39
2023-05-10T04:12:39.196Z,13.32
2023-05-10T04:15:06.274Z,13.39
2023-05-10T04:17:32.806Z,13.38
2023-05-10T04:19:59.542Z,13.42
2023-05-10T04:22:26.053Z,13.45
2023-05-10T04:24:52.540Z,13.40
2023-05-10T04:27:18.981Z,13.39
2023-05-10T04:29:45.545Z,13.45
2023-05-10T04:32:11.940Z,13.45
2023-05-10T04:34:38.447Z,13.42
2023-05-10T04:37:05.217Z,13.41
2023-05-10T04:39:32.082Z,13.43
2023-05-10T04:41:58.547Z,13.47
2023-05-10T04:44:24.988Z,13.51
2023-05-10T04:46:51.424Z,13.57
2023-05-10T04:49:18.942Z,13.60
2023-05-10T04:51:45.490Z,13.66
2023-05-10T04:54:11.994Z,13.64
2023-05-10T04:56:38.387Z,13.55
2023-05-10T04:59:05.043Z,13.58
2023-05-10T05:01:31.527Z,13.62
2023-05-10T05:03:58.219Z,13.64
2023-05-10T05:06:26.090Z,13.63
2023-05-10T05:08:52.679Z,13.62
2023-05-10T05:11:19.176Z,13.72
2023-05-10T05:13:45.841Z,13.73
2023-05-10T05:16:12.415Z,13.85
2023-05-10T05:18:39.775Z,13.89
2023-05-10T05:21:17.001Z,13.88
2023-05-10T05:23:44.191Z,13.95
2023-05-10T05:26:11.525Z,13.88
2023-05-10T05:28:39.409Z,13.87
2023-05-10T05:31:06.883Z,13.91
2023-05-10T05:33:33.757Z,13.97
2023-05-10T05:36:07.175Z,14.00
2023-05-10T05:38:33.851Z,14.10
2023-05-10T05:41:00.390Z,14.05
2023-05-10T05:43:27.145Z,14.06
2023-05-10T05:45:58.866Z,14.11
2023-05-10T05:48:25.636Z,14.17
2023-05-10T05:50:56.061Z,14.07
2023-05-10T05:53:22.743Z,14.08
2023-05-10T05:55:56.747Z,14.09
2023-05-10T05:58:23.691Z,14.12
2023-05-10T06:00:50.203Z,14.22
2023-05-10T06:03:16.960Z,14.23
2023-05-10T06:05:43.427Z,14.27
2023-05-10T06:08:10.222Z,14.31
2023-05-10T06:10:37.123Z,14.31
2023-05-10T06:13:03.743Z,14.27
2023-05-10T06:15:30.216Z,14.30
2023-05-10T06:17:57.392Z,14.35
2023-05-10T06:20:23.924Z,14.33
2023-05-10T06:22:50.573Z,14.45
2023-05-10T06:25:19.016Z,14.54
2023-05-10T06:27:48.942Z,14.66
2023-05-10T06:30:17.699Z,14.71
2023-05-10T06:32:45.086Z,14.68
2023-05-10T06:35:11.671Z,14.66
2023-05-10T06:37:38.313Z,14.81
2023-05-10T06:40:05.980Z,14.92
2023-05-10T06:42:32.402Z,15.03
2023-05-10T06:44:58.803Z,14.97
2023-05-10T06:47:25.928Z,15.01
2023-05-10T06:49:52.321Z,15.13
2023-05-10T06:52:18.811Z,15.24
2023-05-10T06:54:45.351Z,15.29
2023-05-10T06:57:23.315Z,15.22
2023-05-10T06:59:57.501Z,15.30
2023-05-10T07:02:24.109Z,15.40
2023-05-10T07:04:51.058Z,15.25
2023-05-10T07:07:17.793Z,15.25
2023-05-10T07:09:44.263Z,15.28
2023-05-10T07:12:13.457Z,15.37
2023-05-10T07:14:41.343Z,15.39
2023-05-10T07:17:07.861Z,15.38
2023-05-10T07:19:34.460Z,15.43
2023-05-10T07:22:01.203Z,15.54
2023-05-10T07:24:27.865Z,15.65
2023-05-10T07:26:54.352Z,15.67
2023-05-10T07:29:20.794Z,15.70
2023-05-10T07:31:47.338Z,15.75
2023-05-10T07:34:13.782Z,15.85
2023-05-10T07:36:40.255Z,15.87
2023-05-10T07:39:06.769Z,15.98
2023-05-10T07:41:35.064Z,16.03
2023-05-10T07:44:02.215Z,16.06
2023-05-10T07:46:29.542Z,16.08
2023-05-10T07:48:56.417Z,15.89
2023-05-10T07:51:23.207Z,15.90
2023-05-10T07:53:49.907Z,15.83
2023-05-10T07:56:30.615Z,15.82
2023-05-10T07:58:57.754Z,15.74
2023-05-10T08:01:24.882Z,15.75
2023-05-10T08:03:52.210Z,15.77
2023-05-10T08:06:20.003Z,15.91
2023-05-10T08:08:50.282Z,15.89
2023-05-10T08:11:18.404Z,15.94
2023-05-10T08:13:45.846Z,15.94
2023-05-10T08:16:12.616Z,15.66
2023-05-10T08:18:39.848Z,15.59
2023-05-10T08:21:06.601Z,15.56
2023-05-10T08:23:33.658Z,15.44
2023-05-10T08:26:00.878Z,15.35
2023-05-10T08:28:28.074Z,15.29
2023-05-10T08:30:54.525Z,15.21
2023-05-10T08:33:21.197Z,15.07
2023-05-10T08:35:47.812Z,15.11
2023-05-10T08:38:14.473Z,15.17
2023-05-10T08:40:43.881Z,15.17
2023-05-10T08:43:13.000Z,15.28
2023-05-10T08:45:41.346Z,15.16
2023-05-10T08:48:09.095Z,15.13
2023-05-10T08:50:42.023Z,15.25
2023-05-10T08:53:13.622Z,15.20
2023-05-10T08:55:41.204Z,15.11
2023-05-10T08:58:07.803Z,14.99
2023-05-10T09:00:34.855Z,15.08
2023-05-10T09:03:02.537Z,15.33
2023-05-10T09:05:29.155Z,15.38
2023-05-10T09:07:55.718Z,15.44
2023-05-10T09:10:24.004Z,15.43
2023-05-10T09:12:52.310Z,15.29
2023-05-10T09:15:20.852Z,15.17
2023-05-10T09:17:48.332Z,15.33
2023-05-10T09:20:15.363Z,15.24
2023-05-10T09:22:42.195Z,15.32
2023-05-10T09:25:14.367Z,15.21
2023-05-10T09:27:42.744Z,15.08
2023-05-10T09:30:10.064Z,15.05
2023-05-10T09:32:41.097Z,14.73
2023-05-10T09:35:16.100Z,14.63
2023-05-10T09:37:46.991Z,14.62
2023-05-10T09:40:21.756Z,14.60
2023-05-10T09:42:58.425Z,14.64
2023-05-10T09:45:27.622Z,14.49
2023-05-10T09:47:54.671Z,14.43
2023-05-10T09:50:21.926Z,14.25
2023-05-10T09:52:51.978Z,14.46
2023-05-10T09:55:21.052Z,14.59
2023-05-10T09:57:49.272Z,14.47
2023-05-10T10:00:21.882Z,14.32
2023-05-10T10:02:56.244Z,14.23
2023-05-10T10:05:31.922Z,14.37
2023-05-10T10:08:00.114Z,14.19
2023-05-10T10:10:28.293Z,14.18
2023-05-10T10:12:55.979Z,14.17
2023-05-10T10:15:23.536Z,14.13
2023-05-10T10:17:51.481Z,14.02
2023-05-10T10:20:20.146Z,14.05
2023-05-10T10:22:47.923Z,14.07
2023-05-10T10:25:17.066Z,14.07
2023-05-10T10:27:52.790Z,14.08
2023-05-10T10:30:43.722Z,14.11
2023-05-10T10:33:37.147Z,14.09
2023-05-10T10:36:05.068Z,14.11
2023-05-10T10:38:46.772Z,14.02
2023-05-10T10:41:50.598Z,14.14
2023-05-10T10:44:30.239Z,14.30
2023-05-10T10:47:31.964Z,14.29
2023-05-10T10:50:01.462Z,14.16
2023-05-10T10:52:36.141Z,14.07
2023-05-10T10:55:10.165Z,14.01
2023-05-10T10:57:52.699Z,13.98
2023-05-10T11:00:38.721Z,14.10
2023-05-10T11:03:08.193Z,14.09
2023-05-10T11:05:46.425Z,14.17
2023-05-10T11:08:12.980Z,13.93
2023-05-10T11:10:40.081Z,13.99
2023-05-10T11:13:08.676Z,14.07
2023-05-10T11:15:35.057Z,14.02
2023-05-10T11:18:18.917Z,13.88
2023-05-10T11:20:51.525Z,13.86
2023-05-10T11:23:18.978Z,13.87
2023-05-10T11:25:46.694Z,13.93
2023-05-10T11:28:14.156Z,13.96
2023-05-10T11:30:41.697Z,13.96
2023-05-10T11:33:09.447Z,13.95
2023-05-10T11:35:43.026Z,14.03
2023-05-10T11:38:11.497Z,14.16
2023-05-10T11:40:38.998Z,14.28
2023-05-10T11:43:06.748Z,14.42
2023-05-10T11:45:34.568Z,14.54
2023-05-10T11:48:02.657Z,14.63
2023-05-10T11:50:29.503Z,14.50
2023-05-10T11:52:57.792Z,14.41
2023-05-10T11:55:25.230Z,14.53
2023-05-10T11:57:55.584Z,14.57
2023-05-10T12:00:22.572Z,14.74
2023-05-10T12:02:49.691Z,14.75
2023-05-10T12:05:16.764Z,14.84
2023-05-10T12:07:43.567Z,14.83
2023-05-10T12:10:20.528Z,14.90
2023-05-10T12:12:51.086Z,14.95
2023-05-10T12:15:25.633Z,15.04
2023-05-10T12:17:52.284Z,15.09
2023-05-10T12:20:23.766Z,15.10
2023-05-10T12:22:55.715Z,15.24
2023-05-10T12:25:24.199Z,15.32
2023-05-10T12:27:56.856Z,15.36
2023-05-10T12:30:29.481Z,15.27
2023-05-10T12:33:08.439Z,15.38
2023-05-10T12:35:50.192Z,15.58
2023-05-10T12:38:30.739Z,15.64
2023-05-10T12:40:59.233Z,15.76
2023-05-10T12:43:25.874Z,15.86
2023-05-10T12:45:52.559Z,15.73
2023-05-10T12:48:19.340Z,15.83
2023-05-10T12:50:46.668Z,16.04
2023-05-10T12:53:17.479Z,16.14
2023-05-10T12:55:44.745Z,16.25
2023-05-10T12:58:15.811Z,16.35
2023-05-10T13:00:47.854Z,16.55
2023-05-10T13:03:14.513Z,16.57
2023-05-10T13:05:40.958Z,16.37
2023-05-10T13:08:07.711Z,16.48
2023-05-10T13:10:34.222Z,16.50
2023-05-10T13:13:00.793Z,16.44
2023-05-10T13:15:27.449Z,16.43
2023-05-10T13:17:55.455Z,16.38
2023-05-10T13:20:21.919Z,16.48
2023-05-10T13:22:49.578Z,16.47
2023-05-10T13:25:16.929Z,16.44
2023-05-10T13:27:43.853Z,16.37
2023-05-10T13:30:10.705Z,16.36
2023-05-10T13:32:37.323Z,16.40
2023-05-10T13:35:04.470Z,16.41
2023-05-10T13:37:32.159Z,16.33
2023-05-10T13:39:58.658Z,16.24
2023-05-10T13:42:25.270Z,16.19
2023-05-10T13:44:52.405Z,16.27
2023-05-10T13:47:19.231Z,16.27
2023-05-10T13:49:45.637Z,16.34
2023-05-10T13:52:13.087Z,16.35
2023-05-10T13:54:39.645Z,16.58
2023-05-10T13:57:07.509Z,17.05
2023-05-10T13:59:33.940Z,17.31
2023-05-10T14:02:00.992Z,17.42
2023-05-10T14:04:27.442Z,17.54
2023-05-10T14:06:54.106Z,17.72
2023-05-10T14:09:20.997Z,17.69
2023-05-10T14:11:47.474Z,17.76
2023-05-10T14:14:14.449Z,17.77
2023-05-10T14:16:45.253Z,17.76
2023-05-10T14:19:13.678Z,17.58
2023-05-10T14:21:40.435Z,17.67
2023-05-10T14:24:08.071Z,17.64
2023-05-10T14:26:35.512Z,17.49
2023-05-10T14:29:02.132Z,17.48
2023-05-10T14:31:31.412Z,17.55
2023-05-10T14:33:58.656Z,17.69
2023-05-10T14:36:25.287Z,17.56
2023-05-10T14:38:52.554Z,17.57
2023-05-10T14:41:19.396Z,17.44
2023-05-10T14:43:45.809Z,17.41
2023-05-10T14:46:12.441Z,17.24
2023-05-10T14:48:38.936Z,17.18
2023-05-10T14:51:05.730Z,17.16
2023-05-10T14:53:32.154Z,17.18
2023-05-10T14:55:58.824Z,17.29
2023-05-10T14:58:25.271Z,17.28
2023-05-10T15:00:52.109Z,17.23
2023-05-10T15:03:19.053Z,17.15
2023-05-10T15:05:46.154Z,17.14
2023-05-10T15:08:13.466Z,17.09
2023-05-10T15:10:40.798Z,17.12
2023-05-10T15:13:07.225Z,17.20
2023-05-10T15:15:33.799Z,17.27
2023-05-10T15:18:00.347Z,17.31
2023-05-10T15:20:27.080Z,17.23
2023-05-10T15:22:53.496Z,17.22
2023-05-10T15:25:21.003Z,17.21
2023-05-10T15:27:47.493Z,17.18
2023-05-10T15:30:14.335Z,17.12
2023-05-10T15:32:41.433Z,16.98
2023-05-10T15:35:11.487Z,16.90
2023-05-10T15:37:38.678Z,16.75
2023-05-10T15:40:05.909Z,16.69
2023-05-10T15:42:32.761Z,16.66
2023-05-10T15:45:00.069Z,16.47
2023-05-10T15:47:28.335Z,16.44
2023-05-10T15:49:55.051Z,16.46
2023-05-10T15:52:21.843Z,16.51
2023-05-10T15:54:48.329Z,16.41
2023-05-10T15:57:14.772Z,16.31
2023-05-10T15:59:41.638Z,16.17
2023-05-10T16:02:10.828Z,16.16
2023-05-10T16:04:37.893Z,16.15
2023-05-10T16:07:04.634Z,16.15
2023-05-10T16:09:31.198Z,16.18
2023-05-10T16:11:57.701Z,16.27
2023-05-10T16:14:24.817Z,16.17
2023-05-10T16:16:51.661Z,16.10
2023-05-10T16:19:18.615Z,16.07
2023-05-10T16:21:45.441Z,16.10
2023-05-10T16:24:12.092Z,16.07
2023-05-10T16:26:41.179Z,16.00
2023-05-10T16:29:08.398Z,15.99
2023-05-10T16:31:35.317Z,16.00
2023-05-10T16:34:02.029Z,16.02
2023-05-10T16:36:29.650Z,16.00
2023-05-10T16:38:56.539Z,16.09
2023-05-10T16:41:23.168Z,16.08
2023-05-10T16:43:50.130Z,16.11
2023-05-10T16:46:16.830Z,16.08
2023-05-10T16:48:43.433Z,15.96
2023-05-10T16:51:10.051Z,15.60
2023-05-10T16:53:36.520Z,15.34
2023-05-10T16:56:03.354Z,15.25
2023-05-10T16:58:29.904Z,15.27
2023-05-10T17:00:56.562Z,15.18
2023-05-10T17:03:23.301Z,15.05
2023-05-10T17:05:50.056Z,15.07
2023-05-10T17:08:16.682Z,15.06
2023-05-10T17:10:43.182Z,14.88
2023-05-10T17:13:10.598Z,14.88
2023-05-10T17:15:38.590Z,14.81
2023-05-10T17:18:05.431Z,14.79
2023-05-10T17:20:32.090Z,14.83
2023-05-10T17:22:58.590Z,14.57
2023-05-10T17:25:25.210Z,14.52
2023-05-10T17:27:51.829Z,14.48
2023-05-10T17:30:22.730Z,14.41
2023-05-10T17:32:49.199Z,14.37
2023-05-10T17:35:16.062Z,14.45
2023-05-10T17:37:44.002Z,14.46
2023-05-10T17:40:11.579Z,14.42
2023-05-10T17:42:38.130Z,14.27
2023-05-10T17:45:04.928Z,14.32
2023-05-10T17:47:31.612Z,14.37
2023-05-10T17:49:58.131Z,14.36
2023-05-10T17:52:24.527Z,14.39
2023-05-10T17:54:51.209Z,14.30
2023-05-10T17:57:18.337Z,14.17
2023-05-10T17:59:44.936Z,14.14
2023-05-10T18:02:11.357Z,14.22
2023-05-10T18:04:40.157Z,14.26
2023-05-10T18:07:07.786Z,14.18
2023-05-10T18:09:34.443Z,14.12
2023-05-10T18:12:03.947Z,14.02
2023-05-10T18:14:39.777Z,14.07
2023-05-10T18:17:07.060Z,14.10
2023-05-10T18:19:34.017Z,13.91
2023-05-10T18:22:00.499Z,13.83
2023-05-10T18:24:38.394Z,13.84
2023-05-10T18:27:07.545Z,13.87
2023-05-10T18:29:34.148Z,13.96
2023-05-10T18:32:00.607Z,13.86
2023-05-10T18:34:27.154Z,13.88
2023-05-10T18:36:53.656Z,13.78
2023-05-10T18:39:20.241Z,13.88
2023-05-10T18:41:46.694Z,13.93
2023-05-10T18:44:13.262Z,13.98
2023-05-10T18:46:39.941Z,14.08
2023-05-10T18:49:08.265Z,14.10
2023-05-10T18:51:34.984Z,13.97
2023-05-10T18:54:01.429Z,13.93
2023-05-10T18:56:28.348Z,13.92
2023-05-10T18:58:54.857Z,13.85
2023-05-10T19:01:21.461Z,13.84
2023-05-10T19:03:47.997Z,13.80
2023-05-10T19:06:14.482Z,13.72
2023-05-10T19:08:40.911Z,13.68
2023-05-10T19:11:07.611Z,13.73
2023-05-10T19:13:34.322Z,13.65
2023-05-10T19:16:14.054Z,13.69
2023-05-10T19:18:42.546Z,13.72
2023-05-10T19:21:10.921Z,13.77
2023-05-10T19:23:40.181Z,13.78
2023-05-10T19:26:06.665Z,13.76
2023-05-10T19:28:34.919Z,13.84
2023-05-10T19:31:01.734Z,13.77
2023-05-10T19:33:28.259Z,13.84
2023-05-10T19:35:55.432Z,13.87
2023-05-10T19:38:25.698Z,13.96
2023-05-10T19:40:58.011Z,13.96
2023-05-10T19:43:28.489Z,13.90
2023-05-10T19:45:58.244Z,13.89
2023-05-10T19:48:25.103Z,13.89
2023-05-10T19:50:52.673Z,13.81
2023-05-10T19:53:19.253Z,13.80
2023-05-10T19:55:46.115Z,13.78
2023-05-10T19:58:12.534Z,13.63
2023-05-10T20:00:39.068Z,13.56
2023-05-10T20:03:06.990Z,13.60
2023-05-10T20:05:35.694Z,13.54
2023-05-10T20:08:02.119Z,13.51
2023-05-10T20:10:28.608Z,13.51
2023-05-10T20:12:55.045Z,13.54
2023-05-10T20:15:23.329Z,13.50
2023-05-10T20:17:52.111Z,13.47
2023-05-10T20:20:20.163Z,13.54
2023-05-10T20:22:47.661Z,13.53
2023-05-10T20:25:15.116Z,13.52
2023-05-10T20:27:41.722Z,13.54
2023-05-10T20:30:09.642Z,13.47
2023-05-10T20:32:36.764Z,13.34
2023-05-10T20:35:03.838Z,13.34
2023-05-10T20:37:30.959Z,13.29
2023-05-10T20:39:57.611Z,13.28
2023-05-10T20:42:24.108Z,13.28
2023-05-10T20:44:51.061Z,13.23
2023-05-10T20:47:18.027Z,13.18
2023-05-10T20:49:44.507Z,13.15
2023-05-10T20:52:11.231Z,13.15
2023-05-10T20:54:37.845Z,13.18
2023-05-10T20:57:04.309Z,13.18
2023-05-10T20:59:30.760Z,13.19
2023-05-10T21:01:57.708Z,13.20
2023-05-10T21:04:25.423Z,13.16
2023-05-10T21:06:52.886Z,13.10
2023-05-10T21:09:19.610Z,13.15
2023-05-10T21:11:46.145Z,13.24
2023-05-10T21:14:12.672Z,13.26
2023-05-10T21:16:39.162Z,13.22
2023-05-10T21:19:07.380Z,13.20
2023-05-10T21:21:34.263Z,13.18
2023-05-10T21:24:00.938Z,13.13
2023-05-10T21:26:27.468Z,13.11
2023-05-10T21:28:54.064Z,13.12
2023-05-10T21:31:20.696Z,13.13
2023-05-10T21:33:47.241Z,13.12
2023-05-10T21:36:13.734Z,13.08
2023-05-10T21:38:41.139Z,13.09
2023-05-10T21:41:08.045Z,13.07
2023-05-10T21:43:34.734Z,13.08
2023-05-10T21:46:01.458Z,13.02
2023-05-10T21:48:28.110Z,12.97
2023-05-10T21:50:54.617Z,13.00
2023-05-10T21:53:22.293Z,12.88
2023-05-10T21:55:48.870Z,12.79
2023-05-10T21:58:15.523Z,12.86
2023-05-10T22:00:42.183Z,12.93
2023-05-10T22:03:08.876Z,12.93
2023-05-10T22:05:35.541Z,12.89
2023-05-10T22:08:02.129Z,12.94
2023-05-10T22:10:28.577Z,12.89
2023-05-10T22:12:55.230Z,12.87
2023-05-10T22:15:21.744Z,12.83
2023-05-10T22:17:48.515Z,12.77
2023-05-10T22:20:15.119Z,12.75
2023-05-10T22:22:41.710Z,12.84
2023-05-10T22:25:08.640Z,12.82
2023-05-10T22:27:35.415Z,12.80
2023-05-10T22:30:02.120Z,12.79
2023-05-10T22:32:28.676Z,12.80
2023-05-10T22:34:55.110Z,12.78
2023-05-10T22:37:21.722Z,12.74
2023-05-10T22:39:49.398Z,12.69
2023-05-10T22:42:16.256Z,12.65
2023-05-10T22:44:43.313Z,12.68
2023-05-10T22:47:10.151Z,12.65
2023-05-10T22:49:36.769Z,12.57
2023-05-10T22:52:03.251Z,12.56
2023-05-10T22:54:29.690Z,12.41
2023-05-10T22:56:56.669Z,12.39
2023-05-10T22:59:23.622Z,12.50
2023-05-10T23:01:50.672Z,12.61
2023-05-10T23:04:17.198Z,12.70
2023-05-10T23:06:43.728Z,12.67
2023-05-10T23:09:10.231Z,12.62
2023-05-10T23:11:36.716Z,12.61
2023-05-10T23:14:03.561Z,12.66
2023-05-10T23:16:30.481Z,12.66
2023-05-10T23:18:57.246Z,12.67
2023-05-10T23:21:25.129Z,12.65
2023-05-10T23:23:52.090Z,12.64
2023-05-10T23:26:18.572Z,12.64
2023-05-10T23:28:45.212Z,12.50
2023-05-10T23:31:11.649Z,12.43
2023-05-10T23:33:38.273Z,12.49
2023-05-10T23:36:05.002Z,12.47
2023-05-10T23:38:31.553Z,12.47
2023-05-10T23:40:58.024Z,12.54
2023-05-10T23:43:25.532Z,12.56
2023-05-10T23:45:56.673Z,12.56
2023-05-10T23:48:23.680Z,12.51
2023-05-10T23:50:50.203Z,12.52
2023-05-10T23:53:16.840Z,12.54
2023-05-10T23:55:43.457Z,12.62
2023-05-10T23:58:09.972Z,12.48
